ADDS METAR Data INFO
IDs: Format: Raw Decoded Include TAF

Data at: 0709 UTC 19 Oct 2017

KPGD 190653Z 03006KT 10SM CLR 21/19 A3006 RMK AO2 SLP178 T02110194
KPGD 190553Z 03006KT 10SM CLR 21/20 A3007 RMK AO2 SLP183 T02110200 10244 20211 58009
KPGD 190453Z 03006KT 10SM CLR 22/20 A3009 RMK AO2 SLP190 T02170200 403110217
KPGD 190353Z 03006KT 10SM CLR 22/20 A3009 RMK AO2 SLP191 T02220200
KPGD 190253Z 03006KT 10SM CLR 22/20 A3010 RMK AO2 SLP192 T02220200 51009
KPGD 190153Z 05010KT 10SM CLR 23/21 A3009 RMK AO2 SLP189 T02330206
KPGD 190053Z 05008KT 10SM CLR 24/21 A3008 RMK AO2 SLP187 T02390206
KPGD 182353Z 05012KT 10SM CLR 24/21 A3007 RMK AO2 SLP183 T02440206 10311 20244 53016
KPGD 182253Z 06012G19KT 10SM CLR 26/21 A3004 RMK AO2 SLP173 T02560206
KPGD 182153Z 06014G20KT 10SM FEW033 28/21 A3003 RMK AO2 PK WND 08026/2131 SLP170 T02780206
KPGD 182053Z 08014G22KT 10SM SCT035 BKN060 29/21 A3002 RMK AO2 SLP167 T02940211 56012
KPGD 181953Z AUTO 08010KT 10SM SCT050 SCT070 29/21 A3002 RMK AO2 SLP167 T02940206
KPGD 181853Z 06014KT 10SM FEW037 31/21 A3002 RMK AO2 SLP167 T03060206
KPGD 181753Z 05010KT 10SM SCT030 BKN039 29/21 A3006 RMK AO2 SLP178 T02890211 10300 20222 58014
KPGD 181653Z 07011KT 10SM FEW030 29/21 A3008 RMK AO2 SLP185 T02890211
KPGD 181553Z 08010KT 10SM SCT025 28/21 A3009 RMK AO2 SLP189 T02780211
KPGD 181542Z 05013KT 10SM BKN025 28/22 A3009 RMK AO2 T02830217
KPGD 181512Z 06013KT 10SM SCT018 28/22 A3009 RMK AO2 T02780217
KPGD 181453Z 08013KT 10SM BKN018 27/22 A3010 RMK AO2 SLP192 T02720217 53010
KPGD 181437Z 05010KT 10SM BKN017 27/22 A3009 RMK AO2 T02670222
KPGD 181353Z 05014KT 10SM FEW014 26/22 A3008 RMK AO2 SLP187 T02560217
KPGD 181253Z 05009KT 10SM CLR 23/22 A3007 RMK AO2 SLP183 T02330222
KPGD 181153Z 05007KT 10SM CLR 22/21 A3007 RMK AO2 SLP181 T02220211 10228 20217 53010
KPGD 181131Z 05007KT 10SM SCT008 22/21 A3006 RMK AO2 T02170211
KPGD 181053Z 04007KT 10SM BKN007 22/21 A3005 RMK AO2 SLP175 T02220211
KPGD 181049Z 04007KT 10SM BKN007 22/21 A3004 RMK AO2
KPGD 181040Z 04006KT 10SM SCT009 22/21 A3005 RMK AO2 T02220211 $
KPGD 180953Z AUTO 03008KT 10SM CLR 22/21 A3004 RMK AO2 SLP172 T02220211 $
KPGD 180853Z AUTO 04007KT 10SM CLR 22/21 A3001 RMK AO2 SLP164 T02220211 56016 $
KPGD 180753Z AUTO 03007KT 10SM CLR 22/21 A3002 RMK AO2 SLP165 T02220211 $
KPGD 180653Z AUTO 03007KT 10SM CLR 22/21 A3004 RMK AO2 SLP171 T02220211 $
KPGD 180553Z AUTO 04007KT 10SM FEW014 23/21 A3006 RMK AO2 SLP180 T02280211 10250 20228 55001 $
KPGD 180453Z AUTO 05007KT 10SM CLR 23/21 A3006 RMK AO2 SLP179 T02280211 402890228 $
KPGD 180353Z AUTO 05009KT 10SM CLR 23/21 A3006 RMK AO2 SLP179 T02330211 $
KPGD 180253Z AUTO 05007KT 10SM CLR 24/21 A3007 RMK AO2 SLP181 T02390211 53010 $
KPGD 180153Z AUTO 05010KT 10SM CLR 24/22 A3005 RMK AO2 SLP177 T02390217 $
KPGD 180053Z AUTO 05011KT 10SM CLR 24/22 A3004 RMK AO2 SLP171 T02440217 $
KPGD 172353Z 05008KT 10SM CLR 25/21 A3004 RMK AO2 SLP171 T02500211 10289 20250 53016 $
KPGD 172317Z 05014KT 10SM FEW002 FEW041 SCT049 26/21 A3002 RMK AO2 T02560211 $
KPGD 172253Z 06009KT 10SM FEW044 SCT055 26/22 A3001 RMK AO2 SLP164 T02610217
KPGD 172153Z 03005KT 10SM SCT032 28/22 A2999 RMK AO2 SLP157 T02780222
KPGD 172053Z 04009KT 10SM CLR 29/22 A2999 RMK AO2 SLP155 T02890222 56010
KPGD 171953Z 03007KT 10SM CLR 28/22 A3000 RMK AO2 SLP157 T02780222